createdAt,value
2019-02-20T00:02:06.994Z,5.20
2019-02-20T00:04:37.507Z,5.20
2019-02-20T00:07:09.069Z,5.10
2019-02-20T00:09:39.619Z,5.10
2019-02-20T00:12:10.136Z,5.10
2019-02-20T00:14:40.696Z,5.10
2019-02-20T00:17:11.214Z,5.10
2019-02-20T00:19:42.836Z,5.00
2019-02-20T00:22:13.420Z,5.00
2019-02-20T00:24:43.944Z,5.00
2019-02-20T00:27:14.501Z,4.90
2019-02-20T00:29:45.034Z,4.90
2019-02-20T00:32:15.560Z,4.90
2019-02-20T00:34:46.101Z,4.90
2019-02-20T00:37:16.607Z,5.00
2019-02-20T00:39:47.153Z,5.00
2019-02-20T00:42:17.683Z,5.10
2019-02-20T00:45:05.811Z,5.00
2019-02-20T00:47:59.932Z,5.00
2019-02-20T00:50:31.783Z,5.00
2019-02-20T00:53:09.979Z,5.00
2019-02-20T00:55:40.651Z,5.00
2019-02-20T00:58:11.188Z,5.00
2019-02-20T01:00:41.747Z,4.90
2019-02-20T01:03:12.266Z,4.80
2019-02-20T01:05:42.863Z,4.80
2019-02-20T01:08:14.037Z,4.60
2019-02-20T01:10:44.528Z,4.70
2019-02-20T01:13:15.180Z,4.70
2019-02-20T01:15:45.827Z,4.70
2019-02-20T01:18:16.459Z,4.70
2019-02-20T01:20:46.976Z,4.70
2019-02-20T01:23:17.563Z,4.70
2019-02-20T01:25:48.095Z,4.70
2019-02-20T01:28:19.267Z,4.60
2019-02-20T01:30:49.808Z,4.60
2019-02-20T01:33:20.305Z,4.60
2019-02-20T01:35:50.845Z,4.60
2019-02-20T01:38:21.359Z,4.60
2019-02-20T01:40:51.962Z,4.60
2019-02-20T01:43:22.479Z,4.60
2019-02-20T01:45:53.089Z,4.50
2019-02-20T01:48:23.618Z,4.50
2019-02-20T01:50:54.118Z,4.50
2019-02-20T01:53:24.652Z,4.50
2019-02-20T01:55:55.244Z,4.40
2019-02-20T01:58:25.823Z,4.50
2019-02-20T02:00:56.383Z,4.50
2019-02-20T02:03:26.907Z,4.50
2019-02-20T02:05:57.564Z,4.60
2019-02-20T02:08:28.097Z,4.60
2019-02-20T02:10:58.727Z,4.60
2019-02-20T02:13:29.263Z,4.50
2019-02-20T02:15:59.838Z,4.50
2019-02-20T02:18:30.506Z,4.50
2019-02-20T02:21:03.717Z,4.50
2019-02-20T02:23:34.892Z,4.50
2019-02-20T02:26:10.958Z,4.50
2019-02-20T02:28:38.269Z,4.60
2019-02-20T02:31:10.005Z,4.60
2019-02-20T02:33:41.715Z,4.50
2019-02-20T02:36:12.678Z,4.60
2019-02-20T02:38:43.237Z,4.70
2019-02-20T02:41:14.214Z,4.60
2019-02-20T02:43:44.783Z,4.60
2019-02-20T02:46:15.334Z,4.60
2019-02-20T02:48:46.138Z,4.70
2019-02-20T02:51:16.761Z,4.60
2019-02-20T02:53:47.761Z,4.60
2019-02-20T02:56:19.019Z,4.60
2019-02-20T02:58:49.580Z,4.60
2019-02-20T03:01:20.630Z,4.70
2019-02-20T03:03:51.296Z,4.70
2019-02-20T03:06:21.911Z,4.60
2019-02-20T03:08:52.587Z,4.60
2019-02-20T03:11:23.234Z,4.60
2019-02-20T03:13:54.106Z,4.70
2019-02-20T03:16:24.637Z,4.70
2019-02-20T03:18:55.213Z,4.70
2019-02-20T03:21:25.751Z,4.80
2019-02-20T03:23:56.296Z,4.90
2019-02-20T03:26:26.835Z,4.90
2019-02-20T03:28:57.351Z,4.90
2019-02-20T03:31:28.041Z,4.80
2019-02-20T03:33:58.636Z,4.90
2019-02-20T03:36:29.536Z,4.90
2019-02-20T03:39:00.152Z,4.90
2019-02-20T03:41:30.803Z,4.80
2019-02-20T03:44:01.394Z,4.70
2019-02-20T03:46:31.910Z,4.70
2019-02-20T03:49:02.572Z,4.70
2019-02-20T03:51:33.117Z,4.70
2019-02-20T03:54:04.205Z,4.70
2019-02-20T03:56:34.829Z,4.70
2019-02-20T03:59:05.371Z,4.60
2019-02-20T04:01:35.938Z,4.60
2019-02-20T04:04:06.480Z,4.50
2019-02-20T04:06:36.998Z,4.50
2019-02-20T04:09:07.508Z,4.50
2019-02-20T04:11:38.079Z,4.50
2019-02-20T04:14:08.624Z,4.50
2019-02-20T04:16:39.183Z,4.40
2019-02-20T04:19:10.157Z,4.40
2019-02-20T04:21:40.994Z,4.40
2019-02-20T04:24:11.833Z,4.60
2019-02-20T04:26:42.414Z,4.60
2019-02-20T04:29:12.970Z,4.70
2019-02-20T04:31:43.465Z,4.70
2019-02-20T04:34:14.020Z,4.70
2019-02-20T04:36:44.592Z,4.70
2019-02-20T04:39:15.107Z,4.70
2019-02-20T04:41:45.626Z,4.60
2019-02-20T04:44:16.148Z,4.50
2019-02-20T04:46:46.683Z,4.50
2019-02-20T04:49:17.246Z,4.50
2019-02-20T04:51:47.799Z,4.50
2019-02-20T04:54:18.345Z,4.50
2019-02-20T04:56:48.874Z,4.50
2019-02-20T04:59:22.031Z,4.50
2019-02-20T05:01:52.537Z,4.40
2019-02-20T05:04:23.236Z,4.40
2019-02-20T05:06:53.832Z,4.40
2019-02-20T05:09:24.389Z,4.50
2019-02-20T05:11:55.279Z,4.30
2019-02-20T05:14:25.837Z,4.20
2019-02-20T05:16:56.379Z,4.20
2019-02-20T05:19:26.941Z,4.20
2019-02-20T05:21:57.545Z,4.20
2019-02-20T05:24:30.487Z,4.20
2019-02-20T05:27:01.088Z,4.20
2019-02-20T05:29:31.897Z,4.10
2019-02-20T05:32:02.439Z,4.10
2019-02-20T05:34:32.960Z,4.20
2019-02-20T05:37:03.475Z,4.20
2019-02-20T05:39:34.008Z,4.30
2019-02-20T05:42:04.637Z,4.40
2019-02-20T05:44:35.174Z,4.30
2019-02-20T05:47:05.735Z,4.40
2019-02-20T05:49:36.280Z,4.40
2019-02-20T05:52:06.859Z,4.30
2019-02-20T05:54:37.400Z,4.30
2019-02-20T05:57:07.943Z,4.30
2019-02-20T05:59:38.470Z,4.40
2019-02-20T06:02:09.023Z,4.40
2019-02-20T06:04:40.120Z,4.40
2019-02-20T06:07:11.057Z,4.40
2019-02-20T06:09:41.580Z,4.40
2019-02-20T06:12:12.135Z,4.30
2019-02-20T06:14:42.647Z,4.40
2019-02-20T06:17:13.203Z,4.40
2019-02-20T06:19:43.751Z,4.30
2019-02-20T06:22:14.269Z,4.30
2019-02-20T06:24:44.978Z,4.20
2019-02-20T06:27:16.658Z,4.10
2019-02-20T06:29:47.175Z,4.10
2019-02-20T06:32:17.702Z,4.10
2019-02-20T06:34:48.214Z,4.10
2019-02-20T06:37:18.752Z,4.10
2019-02-20T06:39:49.279Z,4.20
2019-02-20T06:42:19.809Z,4.30
2019-02-20T06:44:53.187Z,4.30
2019-02-20T06:47:23.722Z,4.40
2019-02-20T06:49:54.286Z,4.40
2019-02-20T06:52:24.847Z,4.50
2019-02-20T06:54:55.392Z,4.60
2019-02-20T06:57:25.924Z,4.60
2019-02-20T06:59:56.494Z,4.70
2019-02-20T07:02:27.160Z,4.70
2019-02-20T07:05:46.791Z,4.70
2019-02-20T07:08:54.675Z,4.50
2019-02-20T07:12:00.955Z,4.40
2019-02-20T07:15:06.287Z,4.40
2019-02-20T07:18:01.964Z,4.40
2019-02-20T07:21:00.115Z,4.50
2019-02-20T07:23:53.972Z,4.40
2019-02-20T07:26:58.230Z,4.40
2019-02-20T07:30:03.594Z,4.30
2019-02-20T07:32:34.116Z,4.20
2019-02-20T07:35:04.817Z,4.10
2019-02-20T07:37:35.408Z,4.10
2019-02-20T07:40:07.451Z,4.60
2019-02-20T07:42:37.968Z,5.40
2019-02-20T07:45:11.202Z,6.40
2019-02-20T07:47:41.766Z,7.50
2019-02-20T07:50:14.517Z,8.70
2019-02-20T07:52:45.059Z,9.80
2019-02-20T07:55:15.755Z,11.00
2019-02-20T07:57:46.328Z,11.90
2019-02-20T08:00:18.452Z,12.80
2019-02-20T08:02:49.019Z,13.50
2019-02-20T08:05:19.548Z,14.10
2019-02-20T08:07:50.087Z,14.90
2019-02-20T08:10:20.644Z,15.60
2019-02-20T08:12:51.190Z,16.20
2019-02-20T08:15:21.707Z,16.90
2019-02-20T08:17:52.223Z,17.40
2019-02-20T08:20:22.757Z,17.80
2019-02-20T08:22:53.305Z,18.30
2019-02-20T08:25:23.840Z,18.80
2019-02-20T08:27:54.408Z,19.30
2019-02-20T08:30:24.917Z,19.60
2019-02-20T08:32:56.052Z,20.10
2019-02-20T08:35:26.615Z,20.40
2019-02-20T08:37:57.219Z,20.60
2019-02-20T08:40:27.743Z,20.80
2019-02-20T08:42:58.248Z,20.60
2019-02-20T08:45:28.819Z,20.30
2019-02-20T08:50:24.915Z,20.00
2019-02-20T08:52:55.543Z,20.00
2019-02-20T08:55:31.801Z,20.10
2019-02-20T08:58:01.486Z,20.20
2019-02-20T09:00:33.875Z,20.40
2019-02-20T09:03:04.380Z,20.60
2019-02-20T09:05:34.943Z,20.80
2019-02-20T09:08:05.496Z,21.30
2019-02-20T09:10:36.021Z,21.40
2019-02-20T09:13:06.682Z,21.90
2019-02-20T09:15:37.260Z,22.20
2019-02-20T09:18:07.795Z,22.40
2019-02-20T09:20:38.328Z,22.80
2019-02-20T09:23:08.899Z,22.90
2019-02-20T09:25:41.825Z,23.10
2019-02-20T09:28:12.019Z,23.20
2019-02-20T09:30:42.549Z,23.10
2019-02-20T09:33:13.066Z,23.10
2019-02-20T09:35:43.959Z,23.00
2019-02-20T09:38:14.615Z,23.10
2019-02-20T09:40:45.165Z,22.90
2019-02-20T09:43:17.408Z,23.10
2019-02-20T09:45:48.069Z,23.50
2019-02-20T09:48:18.616Z,23.70
2019-02-20T09:50:49.211Z,23.70
2019-02-20T09:53:19.747Z,23.90
2019-02-20T09:55:51.817Z,24.00
2019-02-20T09:58:22.535Z,24.20
2019-02-20T10:00:53.055Z,24.40
2019-02-20T10:03:23.575Z,24.50
2019-02-20T10:05:54.124Z,24.60
2019-02-20T10:08:24.660Z,24.40
2019-02-20T10:10:55.191Z,24.40
2019-02-20T10:13:25.739Z,24.10
2019-02-20T10:15:56.268Z,23.90
2019-02-20T10:18:26.884Z,23.70
2019-02-20T10:20:57.459Z,23.60
2019-02-20T10:23:27.987Z,23.40
2019-02-20T10:26:00.907Z,23.10
2019-02-20T10:28:31.116Z,22.90
2019-02-20T10:31:01.671Z,22.10
2019-02-20T10:33:32.180Z,21.90
2019-02-20T10:36:02.726Z,21.60
2019-02-20T10:38:36.208Z,21.20
2019-02-20T10:41:06.732Z,21.20
2019-02-20T10:43:37.250Z,21.20
2019-02-20T10:46:07.781Z,21.40
2019-02-20T10:48:38.322Z,21.20
2019-02-20T10:51:08.915Z,21.30
2019-02-20T10:53:39.424Z,21.30
2019-02-20T10:56:09.953Z,21.30
2019-02-20T10:58:40.474Z,21.00
2019-02-20T11:01:11.025Z,20.60
2019-02-20T11:03:41.526Z,20.20
2019-02-20T11:06:12.580Z,19.60
2019-02-20T11:08:43.473Z,19.00
2019-02-20T11:11:14.187Z,18.30
2019-02-20T11:13:44.715Z,17.60
2019-02-20T11:16:15.275Z,16.70
2019-02-20T11:18:45.824Z,16.50
2019-02-20T11:21:16.352Z,16.50
2019-02-20T11:23:46.914Z,16.20
2019-02-20T11:26:18.643Z,16.00
2019-02-20T11:28:49.296Z,15.80
2019-02-20T11:31:19.838Z,15.70
2019-02-20T11:33:50.376Z,15.70
2019-02-20T11:36:20.879Z,15.80
2019-02-20T11:38:51.454Z,15.70
2019-02-20T11:41:22.447Z,15.60
2019-02-20T11:43:52.962Z,15.20
2019-02-20T11:46:23.499Z,15.00
2019-02-20T11:48:54.020Z,14.90
2019-02-20T11:51:24.707Z,14.70
2019-02-20T11:53:55.244Z,15.00
2019-02-20T11:56:26.802Z,15.50
2019-02-20T11:58:57.513Z,16.10
2019-02-20T12:01:28.764Z,16.60
2019-02-20T12:03:59.318Z,16.90
2019-02-20T12:06:29.830Z,17.20
2019-02-20T12:09:05.338Z,17.30
2019-02-20T12:11:36.016Z,17.10
2019-02-20T12:14:07.623Z,16.80
2019-02-20T12:16:38.133Z,16.40
2019-02-20T12:19:08.663Z,16.20
2019-02-20T12:21:39.190Z,16.10
2019-02-20T12:24:09.736Z,16.00
2019-02-20T12:26:40.325Z,16.00
2019-02-20T12:29:11.331Z,16.10
2019-02-20T12:31:42.058Z,16.10
2019-02-20T12:34:13.281Z,16.20
2019-02-20T12:36:43.836Z,16.50
2019-02-20T12:39:14.409Z,16.70
2019-02-20T12:41:44.947Z,16.90
2019-02-20T12:44:15.518Z,17.20
2019-02-20T12:46:47.739Z,17.60
2019-02-20T12:49:18.527Z,17.90
2019-02-20T12:51:49.088Z,18.20
2019-02-20T12:54:19.610Z,18.40
2019-02-20T12:56:52.833Z,18.70
2019-02-20T12:59:25.842Z,18.70
2019-02-20T13:02:00.722Z,18.70
2019-02-20T13:04:34.518Z,18.60
2019-02-20T13:07:05.420Z,18.60
2019-02-20T13:09:35.955Z,18.70
2019-02-20T13:12:06.492Z,18.70
2019-02-20T13:14:37.419Z,18.70
2019-02-20T13:17:08.004Z,18.60
2019-02-20T13:19:38.527Z,18.30
2019-02-20T13:22:09.037Z,18.10
2019-02-20T13:24:39.657Z,17.90
2019-02-20T13:27:12.499Z,17.50
2019-02-20T13:29:43.056Z,17.30
2019-02-20T13:32:16.939Z,17.00
2019-02-20T13:34:47.451Z,16.90
2019-02-20T13:37:18.018Z,16.70
2019-02-20T13:39:48.605Z,16.60
2019-02-20T13:42:19.507Z,16.20
2019-02-20T13:44:50.007Z,16.00
2019-02-20T13:47:20.555Z,15.90
2019-02-20T13:49:51.086Z,15.70
2019-02-20T13:52:21.628Z,15.60
2019-02-20T13:54:52.183Z,15.50
2019-02-20T13:57:23.112Z,15.20
2019-02-20T13:59:53.629Z,15.10
2019-02-20T14:02:24.175Z,15.10
2019-02-20T14:04:54.681Z,15.00
2019-02-20T14:07:25.226Z,14.80
2019-02-20T14:09:55.785Z,14.60
2019-02-20T14:12:26.331Z,14.60
2019-02-20T14:14:57.015Z,14.50
2019-02-20T14:17:27.605Z,14.50
2019-02-20T14:19:58.123Z,14.50
2019-02-20T14:22:28.677Z,14.60
2019-02-20T14:24:59.561Z,14.60
2019-02-20T14:27:30.131Z,14.60
2019-02-20T14:30:00.901Z,14.70
2019-02-20T14:32:33.694Z,14.70
2019-02-20T14:35:04.663Z,14.60
2019-02-20T14:37:36.733Z,14.40
2019-02-20T14:40:07.307Z,14.30
2019-02-20T14:42:37.899Z,14.20
2019-02-20T14:45:09.807Z,14.20
2019-02-20T14:47:40.744Z,13.90
2019-02-20T14:50:11.379Z,13.90
2019-02-20T14:52:42.293Z,13.70
2019-02-20T14:55:13.413Z,13.50
2019-02-20T14:57:43.974Z,13.30
2019-02-20T15:00:15.768Z,12.90
2019-02-20T15:02:46.314Z,12.60
2019-02-20T15:05:16.872Z,12.30
2019-02-20T15:07:47.383Z,12.10
2019-02-20T15:10:17.943Z,11.90
2019-02-20T15:12:48.476Z,11.70
2019-02-20T15:15:19.245Z,11.70
2019-02-20T15:17:49.727Z,11.60
2019-02-20T15:20:20.788Z,11.60
2019-02-20T15:22:51.324Z,11.60
2019-02-20T15:25:22.230Z,11.50
2019-02-20T15:27:52.774Z,11.50
2019-02-20T15:30:23.316Z,11.40
2019-02-20T15:32:53.871Z,11.30
2019-02-20T15:35:24.388Z,11.20
2019-02-20T15:37:54.907Z,11.10
2019-02-20T15:40:25.459Z,11.00
2019-02-20T15:42:57.550Z,10.80
2019-02-20T15:45:28.130Z,10.70
2019-02-20T15:47:58.959Z,10.40
2019-02-20T15:50:29.523Z,10.20
2019-02-20T15:53:00.075Z,10.00
2019-02-20T15:55:30.618Z,9.70
2019-02-20T15:58:01.415Z,9.50
2019-02-20T16:00:31.968Z,9.30
2019-02-20T16:03:02.480Z,9.00
2019-02-20T16:05:33.138Z,8.80
2019-02-20T16:08:03.805Z,8.60
2019-02-20T16:10:34.835Z,8.40
2019-02-20T16:13:05.598Z,8.30
2019-02-20T16:15:36.413Z,8.10
2019-02-20T16:18:06.938Z,7.90
2019-02-20T16:20:37.509Z,7.70
2019-02-20T16:23:08.075Z,7.50
2019-02-20T16:25:38.942Z,7.30
2019-02-20T16:28:09.590Z,7.20
2019-02-20T16:30:40.303Z,7.00
2019-02-20T16:33:10.862Z,6.90
2019-02-20T16:35:41.359Z,6.70
2019-02-20T16:38:11.939Z,6.60
2019-02-20T16:40:42.447Z,6.40
2019-02-20T16:43:13.767Z,6.30
2019-02-20T16:45:44.287Z,6.20
2019-02-20T16:48:14.818Z,6.00
2019-02-20T16:50:45.363Z,5.80
2019-02-20T16:53:15.915Z,5.70
2019-02-20T16:55:46.444Z,5.70
2019-02-20T16:58:17.332Z,5.70
2019-02-20T17:00:48.263Z,5.60
2019-02-20T17:03:18.815Z,5.60
2019-02-20T17:05:49.361Z,5.50
2019-02-20T17:08:20.500Z,5.50
2019-02-20T17:10:51.054Z,5.50
2019-02-20T17:13:21.596Z,5.40
2019-02-20T17:15:52.097Z,5.40
2019-02-20T17:18:22.592Z,5.40
2019-02-20T17:20:53.123Z,5.40
2019-02-20T17:23:23.697Z,5.40
2019-02-20T17:25:54.666Z,5.30
2019-02-20T17:28:29.179Z,5.30
2019-02-20T17:31:02.969Z,5.30
2019-02-20T17:33:33.735Z,5.30
2019-02-20T17:36:04.278Z,5.30
2019-02-20T17:38:36.383Z,5.40
2019-02-20T17:41:06.890Z,5.50
2019-02-20T17:43:37.449Z,5.50
2019-02-20T17:46:07.951Z,5.60
2019-02-20T17:48:38.478Z,5.70
2019-02-20T17:51:09.008Z,5.70
2019-02-20T17:53:39.931Z,5.80
2019-02-20T17:56:10.532Z,5.70
2019-02-20T17:58:42.637Z,5.70
2019-02-20T18:01:17.273Z,5.60
2019-02-20T18:03:47.844Z,5.50
2019-02-20T18:06:18.397Z,5.40
2019-02-20T18:08:48.921Z,5.30
2019-02-20T18:11:19.487Z,5.20
2019-02-20T18:13:50.016Z,5.10
2019-02-20T18:16:20.616Z,5.10
2019-02-20T18:18:51.181Z,5.00
2019-02-20T18:21:21.683Z,5.00
2019-02-20T18:23:52.311Z,4.90
2019-02-20T18:26:22.864Z,4.90
2019-02-20T18:28:53.414Z,4.80
2019-02-20T18:31:23.916Z,4.80
2019-02-20T18:33:54.535Z,4.80
2019-02-20T18:36:25.048Z,4.80
2019-02-20T18:38:55.573Z,4.70
2019-02-20T18:41:26.162Z,4.70
2019-02-20T18:43:56.684Z,4.60
2019-02-20T18:46:27.240Z,4.60
2019-02-20T18:48:57.814Z,4.60
2019-02-20T18:51:28.388Z,4.50
2019-02-20T18:53:59.064Z,4.60
2019-02-20T18:56:29.826Z,4.50
2019-02-20T18:59:00.331Z,4.60
2019-02-20T19:01:31.069Z,4.60
2019-02-20T19:04:01.651Z,4.60
2019-02-20T19:06:32.233Z,4.60
2019-02-20T19:09:08.925Z,4.60
2019-02-20T19:11:55.075Z,4.50
2019-02-20T19:14:53.164Z,4.50
2019-02-20T19:18:17.676Z,4.40
2019-02-20T19:21:06.781Z,4.30
2019-02-20T19:24:07.772Z,4.20
2019-02-20T19:26:44.784Z,4.20
2019-02-20T19:29:56.886Z,4.20
2019-02-20T19:33:04.080Z,4.10
2019-02-20T19:36:19.309Z,4.10
2019-02-20T19:39:36.847Z,4.10
2019-02-20T19:42:47.899Z,4.10
2019-02-20T19:45:41.562Z,4.20
2019-02-20T19:48:48.851Z,4.20
2019-02-20T19:52:05.210Z,4.30
2019-02-20T19:54:57.612Z,4.30
2019-02-20T19:57:56.957Z,4.30
2019-02-20T20:00:53.671Z,4.30
2019-02-20T20:04:23.197Z,4.30
2019-02-20T20:07:43.828Z,4.20
2019-02-20T20:10:52.543Z,4.20
2019-02-20T20:13:34.691Z,4.20
2019-02-20T20:16:32.059Z,4.10
2019-02-20T20:19:58.837Z,4.10
2019-02-20T20:22:57.555Z,4.10
2019-02-20T20:26:13.301Z,4.10
2019-02-20T20:29:25.199Z,4.00
2019-02-20T20:32:52.511Z,4.00
2019-02-20T20:35:42.933Z,4.00
2019-02-20T20:38:25.693Z,4.10
2019-02-20T20:41:19.356Z,4.10
2019-02-20T20:44:28.188Z,4.10
2019-02-20T20:47:48.004Z,4.20
2019-02-20T20:51:00.895Z,4.20
2019-02-20T20:54:03.113Z,4.20
2019-02-20T20:57:09.247Z,4.20
2019-02-20T21:00:11.273Z,4.10
2019-02-20T21:02:47.505Z,4.10
2019-02-20T21:06:04.011Z,4.10
2019-02-20T21:09:04.069Z,4.10
2019-02-20T21:12:14.040Z,4.00
2019-02-20T21:15:13.789Z,4.00
2019-02-20T21:18:22.604Z,4.00
2019-02-20T21:21:02.454Z,4.00
2019-02-20T21:23:58.342Z,4.00
2019-02-20T21:27:13.185Z,4.00
2019-02-20T21:30:23.756Z,4.00
2019-02-20T21:33:30.076Z,4.00
2019-02-20T21:36:39.987Z,4.10
2019-02-20T21:39:40.546Z,4.10
2019-02-20T21:42:44.814Z,4.10
2019-02-20T21:45:27.652Z,4.10
2019-02-20T21:48:36.399Z,4.10
2019-02-20T21:51:52.936Z,4.10
2019-02-20T21:55:28.916Z,4.10
2019-02-20T21:58:26.901Z,4.10
2019-02-20T22:01:23.507Z,4.10
2019-02-20T22:04:04.426Z,4.10
2019-02-20T22:06:49.377Z,4.20
2019-02-20T22:09:29.834Z,4.10
2019-02-20T22:12:26.667Z,4.10
2019-02-20T22:15:20.662Z,4.20
2019-02-20T22:18:21.578Z,4.20
2019-02-20T22:21:28.313Z,4.30
2019-02-20T22:24:15.647Z,4.40
2019-02-20T22:27:29.166Z,4.40
2019-02-20T22:30:39.138Z,4.50
2019-02-20T22:33:40.977Z,4.50
2019-02-20T22:36:42.306Z,4.60
2019-02-20T22:39:54.710Z,4.60
2019-02-20T22:42:49.850Z,4.70
2019-02-20T22:46:12.321Z,4.70
2019-02-20T22:49:36.696Z,4.70
2019-02-20T22:52:52.621Z,4.80
2019-02-20T22:56:01.264Z,4.80
2019-02-20T22:59:14.286Z,4.90
2019-02-20T23:02:08.076Z,4.90
2019-02-20T23:05:01.669Z,4.80
2019-02-20T23:08:03.266Z,4.80
2019-02-20T23:11:30.720Z,4.80
2019-02-20T23:14:26.723Z,4.80
2019-02-20T23:17:35.620Z,4.80
2019-02-20T23:20:26.366Z,4.80
2019-02-20T23:22:59.261Z,4.80
2019-02-20T23:25:31.840Z,4.80
2019-02-20T23:28:04.494Z,4.80
2019-02-20T23:30:37.288Z,4.70
2019-02-20T23:33:08.835Z,4.80
2019-02-20T23:35:41.003Z,4.90
2019-02-20T23:38:13.200Z,4.90
2019-02-20T23:40:44.988Z,4.90
2019-02-20T23:43:17.725Z,4.90
2019-02-20T23:45:49.952Z,4.80
2019-02-20T23:48:22.392Z,4.70
2019-02-20T23:50:54.960Z,4.60
2019-02-20T23:53:27.622Z,4.60
2019-02-20T23:56:00.751Z,4.60
2019-02-20T23:58:33.712Z,4.60
